sensor_id;sensor_type;location;lat;lon;timestamp;pressure;altitude;pressure_sealevel;temperature;humidity
75196;BME280;63773;42.282;22.782;2023-06-26T00:01:34;96142.59;;;22.07;68.49
75196;BME280;63773;42.282;22.782;2023-06-26T00:04:00;96165.41;;;22.21;68.79
75196;BME280;63773;42.282;22.782;2023-06-26T00:06:26;96163.25;;;22.51;67.58
75196;BME280;63773;42.282;22.782;2023-06-26T00:08:53;96160.56;;;22.42;67.18
75196;BME280;63773;42.282;22.782;2023-06-26T00:11:19;96163.84;;;22.56;67.02
75196;BME280;63773;42.282;22.782;2023-06-26T00:13:44;96145.66;;;22.26;67.17
75196;BME280;63773;42.282;22.782;2023-06-26T00:16:10;96174.28;;;22.47;67.13
75196;BME280;63773;42.282;22.782;2023-06-26T00:18:35;96167.06;;;22.34;67.37
75196;BME280;63773;42.282;22.782;2023-06-26T00:21:01;96171.34;;;22.31;67.74
75196;BME280;63773;42.282;22.782;2023-06-26T00:23:26;96130.63;;;22.06;67.29
75196;BME280;63773;42.282;22.782;2023-06-26T00:25:53;96168.19;;;22.21;67.15
75196;BME280;63773;42.282;22.782;2023-06-26T00:28:18;96169.22;;;22.16;67.49
75196;BME280;63773;42.282;22.782;2023-06-26T00:30:43;96164.28;;;22.01;67.75
75196;BME280;63773;42.282;22.782;2023-06-26T00:33:09;96167.41;;;22.00;68.01
75196;BME280;63773;42.282;22.782;2023-06-26T00:35:34;96167.66;;;21.86;68.24
75196;BME280;63773;42.282;22.782;2023-06-26T00:38:01;96170.47;;;21.86;68.39
75196;BME280;63773;42.282;22.782;2023-06-26T00:40:26;96168.03;;;21.84;68.65
75196;BME280;63773;42.282;22.782;2023-06-26T00:42:52;96150.88;;;21.74;68.01
75196;BME280;63773;42.282;22.782;2023-06-26T00:45:18;96154.38;;;21.92;68.13
75196;BME280;63773;42.282;22.782;2023-06-26T00:47:43;96148.25;;;21.98;67.96
75196;BME280;63773;42.282;22.782;2023-06-26T00:50:09;96158.91;;;21.96;68.04
75196;BME280;63773;42.282;22.782;2023-06-26T00:52:35;96158.81;;;21.93;68.13
75196;BME280;63773;42.282;22.782;2023-06-26T00:55:01;96134.84;;;21.71;68.07
75196;BME280;63773;42.282;22.782;2023-06-26T00:57:26;96164.97;;;21.77;68.43
75196;BME280;63773;42.282;22.782;2023-06-26T00:59:52;96162.84;;;21.74;68.94
75196;BME280;63773;42.282;22.782;2023-06-26T01:02:17;96085.19;;;21.19;68.97
75196;BME280;63773;42.282;22.782;2023-06-26T01:04:48;96173.69;;;21.76;68.65
75196;BME280;63773;42.282;22.782;2023-06-26T01:07:15;96156.75;;;21.81;68.70
75196;BME280;63773;42.282;22.782;2023-06-26T01:09:41;96146.59;;;21.76;68.53
75196;BME280;63773;42.282;22.782;2023-06-26T01:12:07;96164.75;;;21.82;68.21
75196;BME280;63773;42.282;22.782;2023-06-26T01:14:36;96144.50;;;21.73;68.19
75196;BME280;63773;42.282;22.782;2023-06-26T01:17:02;96135.28;;;21.40;68.35
75196;BME280;63773;42.282;22.782;2023-06-26T01:19:29;96157.28;;;21.54;68.59
75196;BME280;63773;42.282;22.782;2023-06-26T01:22:04;96163.22;;;21.73;67.83
75196;BME280;63773;42.282;22.782;2023-06-26T01:24:35;96130.09;;;21.51;68.17
75196;BME280;63773;42.282;22.782;2023-06-26T01:30:02;96111.03;;;21.41;68.22
75196;BME280;63773;42.282;22.782;2023-06-26T01:32:30;96148.75;;;21.59;68.40
75196;BME280;63773;42.282;22.782;2023-06-26T01:34:57;96143.84;;;21.56;68.71
75196;BME280;63773;42.282;22.782;2023-06-26T01:37:23;96115.94;;;21.44;68.48
75196;BME280;63773;42.282;22.782;2023-06-26T01:39:48;96135.16;;;21.57;68.74
75196;BME280;63773;42.282;22.782;2023-06-26T01:42:14;96135.34;;;21.52;68.45
75196;BME280;63773;42.282;22.782;2023-06-26T01:44:44;96140.16;;;21.43;68.22
75196;BME280;63773;42.282;22.782;2023-06-26T01:47:12;96143.78;;;21.44;68.17
75196;BME280;63773;42.282;22.782;2023-06-26T01:49:56;96138.22;;;21.44;68.31
75196;BME280;63773;42.282;22.782;2023-06-26T01:52:34;96133.00;;;21.42;68.23
75196;BME280;63773;42.282;22.782;2023-06-26T01:55:21;96135.28;;;21.40;68.43
75196;BME280;63773;42.282;22.782;2023-06-26T01:57:52;96140.31;;;21.47;68.07
75196;BME280;63773;42.282;22.782;2023-06-26T02:00:20;96143.78;;;21.44;68.16
75196;BME280;63773;42.282;22.782;2023-06-26T02:02:46;96153.00;;;21.36;68.96
75196;BME280;63773;42.282;22.782;2023-06-26T02:05:12;96139.41;;;21.34;68.46
75196;BME280;63773;42.282;22.782;2023-06-26T02:07:38;96139.09;;;21.36;68.53
75196;BME280;63773;42.282;22.782;2023-06-26T02:10:03;96072.22;;;20.73;69.19
75196;BME280;63773;42.282;22.782;2023-06-26T02:12:29;96146.53;;;20.94;70.12
75196;BME280;63773;42.282;22.782;2023-06-26T02:14:54;96146.31;;;21.07;70.10
75196;BME280;63773;42.282;22.782;2023-06-26T02:17:20;96143.81;;;21.14;69.73
75196;BME280;63773;42.282;22.782;2023-06-26T02:19:45;96134.53;;;21.31;69.14
75196;BME280;63773;42.282;22.782;2023-06-26T02:22:14;96143.19;;;21.09;68.83
75196;BME280;63773;42.282;22.782;2023-06-26T02:24:40;96140.34;;;21.17;68.92
75196;BME280;63773;42.282;22.782;2023-06-26T02:27:06;96137.56;;;21.17;68.74
75196;BME280;63773;42.282;22.782;2023-06-26T02:29:31;96128.75;;;21.15;68.83
75196;BME280;63773;42.282;22.782;2023-06-26T02:31:57;96120.41;;;21.15;68.68
75196;BME280;63773;42.282;22.782;2023-06-26T02:34:22;96131.63;;;21.27;68.40
75196;BME280;63773;42.282;22.782;2023-06-26T02:36:47;96130.19;;;21.21;68.50
75196;BME280;63773;42.282;22.782;2023-06-26T02:39:13;96124.47;;;21.18;68.53
75196;BME280;63773;42.282;22.782;2023-06-26T02:41:39;96128.75;;;21.15;68.76
75196;BME280;63773;42.282;22.782;2023-06-26T02:44:05;96134.53;;;21.10;69.27
75196;BME280;63773;42.282;22.782;2023-06-26T02:46:31;96116.34;;;21.04;69.23
75196;BME280;63773;42.282;22.782;2023-06-26T02:48:56;96129.44;;;21.12;68.81
75196;BME280;63773;42.282;22.782;2023-06-26T02:51:22;96130.25;;;21.13;68.97
75196;BME280;63773;42.282;22.782;2023-06-26T02:53:47;96128.59;;;21.12;68.13
75196;BME280;63773;42.282;22.782;2023-06-26T02:56:13;96132.22;;;21.04;68.57
75196;BME280;63773;42.282;22.782;2023-06-26T02:58:38;96128.78;;;21.07;68.56
75196;BME280;63773;42.282;22.782;2023-06-26T03:01:03;96136.81;;;21.08;67.56
75196;BME280;63773;42.282;22.782;2023-06-26T03:03:29;96137.88;;;20.66;68.32
75196;BME280;63773;42.282;22.782;2023-06-26T03:05:54;96143.66;;;20.82;67.72
75196;BME280;63773;42.282;22.782;2023-06-26T03:08:20;96141.91;;;20.77;67.83
75196;BME280;63773;42.282;22.782;2023-06-26T03:10:45;96134.19;;;20.45;69.55
75196;BME280;63773;42.282;22.782;2023-06-26T03:13:10;96092.38;;;20.15;69.42
75196;BME280;63773;42.282;22.782;2023-06-26T03:15:36;96143.06;;;20.67;68.78
75196;BME280;63773;42.282;22.782;2023-06-26T03:18:01;96154.31;;;20.42;68.80
75196;BME280;63773;42.282;22.782;2023-06-26T03:20:26;96148.06;;;20.45;69.00
75196;BME280;63773;42.282;22.782;2023-06-26T03:22:52;96139.44;;;20.38;69.55
75196;BME280;63773;42.282;22.782;2023-06-26T03:25:17;96138.97;;;20.27;70.46
75196;BME280;63773;42.282;22.782;2023-06-26T03:27:43;96149.84;;;20.49;70.15
75196;BME280;63773;42.282;22.782;2023-06-26T03:30:09;96143.94;;;20.59;70.08
75196;BME280;63773;42.282;22.782;2023-06-26T03:32:34;96146.31;;;20.69;70.55
75196;BME280;63773;42.282;22.782;2023-06-26T03:35:00;96159.53;;;20.81;69.79
75196;BME280;63773;42.282;22.782;2023-06-26T03:37:28;96074.59;;;20.08;70.13
75196;BME280;63773;42.282;22.782;2023-06-26T03:39:53;96129.56;;;20.57;70.73
75196;BME280;63773;42.282;22.782;2023-06-26T03:42:19;96157.53;;;20.90;70.33
75196;BME280;63773;42.282;22.782;2023-06-26T03:44:44;96162.00;;;21.12;69.04
75196;BME280;63773;42.282;22.782;2023-06-26T03:47:10;96148.75;;;21.09;69.37
75196;BME280;63773;42.282;22.782;2023-06-26T03:49:35;96149.38;;;21.14;69.70
75196;BME280;63773;42.282;22.782;2023-06-26T03:52:00;96087.41;;;20.76;69.88
75196;BME280;63773;42.282;22.782;2023-06-26T03:54:26;96159.56;;;21.31;69.57
75196;BME280;63773;42.282;22.782;2023-06-26T03:56:51;96160.25;;;21.07;69.09
75196;BME280;63773;42.282;22.782;2023-06-26T03:59:17;96172.63;;;21.18;68.73
75196;BME280;63773;42.282;22.782;2023-06-26T04:01:42;96170.50;;;21.15;69.10
75196;BME280;63773;42.282;22.782;2023-06-26T04:04:08;96133.59;;;20.68;69.61
75196;BME280;63773;42.282;22.782;2023-06-26T04:06:34;96160.00;;;20.83;70.41
75196;BME280;63773;42.282;22.782;2023-06-26T04:08:59;96124.50;;;20.51;70.87
75196;BME280;63773;42.282;22.782;2023-06-26T04:14:46;96157.03;;;20.50;72.52
75196;BME280;63773;42.282;22.782;2023-06-26T04:17:11;96165.69;;;20.57;71.86
75196;BME280;63773;42.282;22.782;2023-06-26T04:19:37;96165.44;;;20.80;70.92
75196;BME280;63773;42.282;22.782;2023-06-26T04:22:03;96173.25;;;20.86;70.71
75196;BME280;63773;42.282;22.782;2023-06-26T04:24:28;96166.56;;;20.79;70.89
75196;BME280;63773;42.282;22.782;2023-06-26T04:26:53;96092.38;;;20.15;71.57
75196;BME280;63773;42.282;22.782;2023-06-26T04:29:22;96170.13;;;20.88;71.14
75196;BME280;63773;42.282;22.782;2023-06-26T04:31:53;96178.88;;;20.69;71.24
75196;BME280;63773;42.282;22.782;2023-06-26T04:34:24;96181.47;;;20.83;71.24
75196;BME280;63773;42.282;22.782;2023-06-26T04:36:50;96176.69;;;20.83;70.98
75196;BME280;63773;42.282;22.782;2023-06-26T04:39:16;96183.19;;;20.96;70.92
75196;BME280;63773;42.282;22.782;2023-06-26T04:41:41;96175.69;;;20.88;70.94
75196;BME280;63773;42.282;22.782;2023-06-26T04:44:07;96180.06;;;20.97;70.66
75196;BME280;63773;42.282;22.782;2023-06-26T04:46:32;96171.22;;;20.95;71.22
75196;BME280;63773;42.282;22.782;2023-06-26T04:48:57;96184.44;;;21.07;71.18
75196;BME280;63773;42.282;22.782;2023-06-26T04:51:26;96179.00;;;20.81;71.60
75196;BME280;63773;42.282;22.782;2023-06-26T04:53:54;96176.53;;;20.88;71.40
75196;BME280;63773;42.282;22.782;2023-06-26T04:56:19;96167.41;;;21.08;71.02
75196;BME280;63773;42.282;22.782;2023-06-26T04:58:45;96180.38;;;21.34;71.02
75196;BME280;63773;42.282;22.782;2023-06-26T05:01:10;96167.09;;;21.39;71.33
75196;BME280;63773;42.282;22.782;2023-06-26T05:03:39;96181.59;;;21.65;70.55
75196;BME280;63773;42.282;22.782;2023-06-26T05:06:04;96175.56;;;21.84;70.41
75196;BME280;63773;42.282;22.782;2023-06-26T05:08:30;96180.72;;;21.73;70.78
75196;BME280;63773;42.282;22.782;2023-06-26T05:10:55;96181.13;;;21.84;70.62
75196;BME280;63773;42.282;22.782;2023-06-26T05:13:23;96187.03;;;21.82;69.93
75196;BME280;63773;42.282;22.782;2023-06-26T05:15:49;96186.22;;;22.23;68.93
75196;BME280;63773;42.282;22.782;2023-06-26T05:18:14;96189.09;;;22.27;67.59
75196;BME280;63773;42.282;22.782;2023-06-26T05:20:40;96193.53;;;21.95;69.36
75196;BME280;63773;42.282;22.782;2023-06-26T05:23:06;96196.63;;;21.94;69.97
75196;BME280;63773;42.282;22.782;2023-06-26T05:25:32;96189.31;;;22.10;69.27
75196;BME280;63773;42.282;22.782;2023-06-26T05:27:59;96197.88;;;22.50;69.11
75196;BME280;63773;42.282;22.782;2023-06-26T05:30:26;96196.84;;;22.75;68.53
75196;BME280;63773;42.282;22.782;2023-06-26T05:32:52;96204.38;;;22.74;67.39
75196;BME280;63773;42.282;22.782;2023-06-26T05:35:20;96199.88;;;22.94;67.25
75196;BME280;63773;42.282;22.782;2023-06-26T05:37:47;96204.16;;;23.04;67.37
75196;BME280;63773;42.282;22.782;2023-06-26T05:40:13;96201.63;;;23.23;66.39
75196;BME280;63773;42.282;22.782;2023-06-26T05:42:39;96175.66;;;23.34;66.73
75196;BME280;63773;42.282;22.782;2023-06-26T05:45:05;96194.72;;;23.69;66.09
75196;BME280;63773;42.282;22.782;2023-06-26T05:47:30;96194.75;;;23.57;64.36
75196;BME280;63773;42.282;22.782;2023-06-26T05:49:56;96190.63;;;23.78;64.39
75196;BME280;63773;42.282;22.782;2023-06-26T05:52:22;96189.53;;;23.95;64.10
75196;BME280;63773;42.282;22.782;2023-06-26T05:54:47;96190.97;;;24.17;63.53
75196;BME280;63773;42.282;22.782;2023-06-26T05:57:13;96190.16;;;24.44;62.37
75196;BME280;63773;42.282;22.782;2023-06-26T05:59:40;96193.97;;;23.96;61.46
75196;BME280;63773;42.282;22.782;2023-06-26T06:02:06;96192.63;;;24.18;62.34
75196;BME280;63773;42.282;22.782;2023-06-26T06:04:32;96188.56;;;24.15;62.34
75196;BME280;63773;42.282;22.782;2023-06-26T06:06:57;96193.34;;;24.02;63.04
75196;BME280;63773;42.282;22.782;2023-06-26T06:09:22;96188.53;;;23.75;62.80
75196;BME280;63773;42.282;22.782;2023-06-26T06:11:48;96192.50;;;24.14;62.09
75196;BME280;63773;42.282;22.782;2023-06-26T06:14:13;96194.72;;;23.69;62.61
75196;BME280;63773;42.282;22.782;2023-06-26T06:16:39;96193.06;;;23.80;63.11
75196;BME280;63773;42.282;22.782;2023-06-26T06:19:04;96114.41;;;23.93;62.20
75196;BME280;63773;42.282;22.782;2023-06-26T06:21:49;96181.03;;;24.90;61.67
75196;BME280;63773;42.282;22.782;2023-06-26T06:24:15;96129.00;;;24.58;60.30
75196;BME280;63773;42.282;22.782;2023-06-26T06:26:40;96168.59;;;25.03;59.88
75196;BME280;63773;42.282;22.782;2023-06-26T06:29:06;96151.03;;;24.75;59.76
75196;BME280;63773;42.282;22.782;2023-06-26T06:31:31;96169.00;;;24.74;60.13
75196;BME280;63773;42.282;22.782;2023-06-26T06:33:57;96175.78;;;25.20;59.51
75196;BME280;63773;42.282;22.782;2023-06-26T06:36:22;96158.72;;;25.25;58.50
75196;BME280;63773;42.282;22.782;2023-06-26T06:38:48;96163.53;;;25.44;59.37
75196;BME280;63773;42.282;22.782;2023-06-26T06:41:13;96163.75;;;25.51;57.98
75196;BME280;63773;42.282;22.782;2023-06-26T06:43:39;96160.56;;;26.06;56.81
75196;BME280;63773;42.282;22.782;2023-06-26T06:46:05;96158.31;;;25.42;58.18
75196;BME280;63773;42.282;22.782;2023-06-26T06:48:31;96160.56;;;26.25;57.20
75196;BME280;63773;42.282;22.782;2023-06-26T06:50:56;96162.63;;;26.70;55.00
75196;BME280;63773;42.282;22.782;2023-06-26T06:53:22;96145.81;;;26.93;55.60
75196;BME280;63773;42.282;22.782;2023-06-26T06:55:48;96157.31;;;26.43;53.41
75196;BME280;63773;42.282;22.782;2023-06-26T06:58:14;96157.81;;;26.90;52.90
75196;BME280;63773;42.282;22.782;2023-06-26T07:00:41;96144.31;;;26.34;51.96
75196;BME280;63773;42.282;22.782;2023-06-26T07:03:07;96156.63;;;26.49;53.27
75196;BME280;63773;42.282;22.782;2023-06-26T07:05:32;96148.56;;;26.67;52.36
75196;BME280;63773;42.282;22.782;2023-06-26T07:07:57;96136.78;;;26.38;51.71
75196;BME280;63773;42.282;22.782;2023-06-26T07:10:23;96145.19;;;26.58;51.01
75196;BME280;63773;42.282;22.782;2023-06-26T07:12:48;96150.47;;;26.63;51.58
75196;BME280;63773;42.282;22.782;2023-06-26T07:15:14;96156.06;;;26.40;51.41
75196;BME280;63773;42.282;22.782;2023-06-26T07:17:39;96112.28;;;25.97;50.79
75196;BME280;63773;42.282;22.782;2023-06-26T07:20:05;96139.88;;;26.53;50.12
75196;BME280;63773;42.282;22.782;2023-06-26T07:22:36;96145.59;;;26.60;51.36
75196;BME280;63773;42.282;22.782;2023-06-26T07:25:01;96151.94;;;26.99;49.89
75196;BME280;63773;42.282;22.782;2023-06-26T07:27:27;96147.47;;;27.69;51.97
75196;BME280;63773;42.282;22.782;2023-06-26T07:29:52;96154.31;;;27.72;50.52
75196;BME280;63773;42.282;22.782;2023-06-26T07:32:18;96155.94;;;27.43;49.32
75196;BME280;63773;42.282;22.782;2023-06-26T07:34:43;96149.16;;;27.47;48.70
75196;BME280;63773;42.282;22.782;2023-06-26T07:37:08;96145.41;;;26.91;49.24
75196;BME280;63773;42.282;22.782;2023-06-26T07:39:34;96137.56;;;27.26;49.26
75196;BME280;63773;42.282;22.782;2023-06-26T07:42:00;96148.41;;;27.50;48.63
75196;BME280;63773;42.282;22.782;2023-06-26T07:44:25;96137.38;;;26.89;49.10
75196;BME280;63773;42.282;22.782;2023-06-26T07:46:51;96149.19;;;27.02;50.02
75196;BME280;63773;42.282;22.782;2023-06-26T07:49:16;96110.00;;;27.09;48.15
75196;BME280;63773;42.282;22.782;2023-06-26T07:51:42;96149.22;;;27.81;49.54
75196;BME280;63773;42.282;22.782;2023-06-26T07:54:07;96146.81;;;28.39;49.03
75196;BME280;63773;42.282;22.782;2023-06-26T07:56:59;96151.06;;;28.26;47.30
75196;BME280;63773;42.282;22.782;2023-06-26T07:59:26;96132.19;;;28.00;46.17
75196;BME280;63773;42.282;22.782;2023-06-26T08:01:53;96152.44;;;28.05;47.94
75196;BME280;63773;42.282;22.782;2023-06-26T08:04:20;96147.44;;;27.95;48.40
75196;BME280;63773;42.282;22.782;2023-06-26T08:06:48;96142.94;;;28.21;47.83
75196;BME280;63773;42.282;22.782;2023-06-26T08:09:14;96067.53;;;27.14;49.28
75196;BME280;63773;42.282;22.782;2023-06-26T08:11:40;96142.56;;;26.68;51.71
75196;BME280;63773;42.282;22.782;2023-06-26T08:14:05;96148.47;;;26.41;54.23
75196;BME280;63773;42.282;22.782;2023-06-26T08:16:31;96148.47;;;25.48;55.84
75196;BME280;63773;42.282;22.782;2023-06-26T08:18:56;96164.16;;;25.68;55.21
75196;BME280;63773;42.282;22.782;2023-06-26T08:21:21;96155.97;;;25.60;54.81
75196;BME280;63773;42.282;22.782;2023-06-26T08:23:47;96154.13;;;26.06;53.64
75196;BME280;63773;42.282;22.782;2023-06-26T08:26:13;96128.59;;;25.72;54.31
75196;BME280;63773;42.282;22.782;2023-06-26T08:28:39;96006.81;;;25.16;53.45
75196;BME280;63773;42.282;22.782;2023-06-26T08:31:04;96152.22;;;25.91;53.64
75196;BME280;63773;42.282;22.782;2023-06-26T08:33:29;96155.03;;;26.10;52.89
75196;BME280;63773;42.282;22.782;2023-06-26T08:35:55;96157.84;;;26.10;52.89
75196;BME280;63773;42.282;22.782;2023-06-26T08:38:20;96154.44;;;26.20;52.90
75196;BME280;63773;42.282;22.782;2023-06-26T08:40:46;96153.31;;;26.05;51.40
75196;BME280;63773;42.282;22.782;2023-06-26T08:43:12;96066.22;;;25.98;51.68
75196;BME280;63773;42.282;22.782;2023-06-26T08:45:38;96158.19;;;26.88;52.35
75196;BME280;63773;42.282;22.782;2023-06-26T08:48:07;96114.97;;;26.74;50.18
75196;BME280;63773;42.282;22.782;2023-06-26T08:50:34;96140.47;;;26.84;51.33
75196;BME280;63773;42.282;22.782;2023-06-26T08:53:16;96155.78;;;26.26;51.57
75196;BME280;63773;42.282;22.782;2023-06-26T08:55:49;96160.13;;;26.43;53.35
75196;BME280;63773;42.282;22.782;2023-06-26T08:58:17;96152.44;;;26.59;52.90
75196;BME280;63773;42.282;22.782;2023-06-26T09:00:43;96151.66;;;26.62;52.55
75196;BME280;63773;42.282;22.782;2023-06-26T09:03:09;96144.53;;;26.07;51.95
75196;BME280;63773;42.282;22.782;2023-06-26T09:05:35;96138.28;;;26.13;50.85
75196;BME280;63773;42.282;22.782;2023-06-26T09:08:00;96135.31;;;26.86;51.48
75196;BME280;63773;42.282;22.782;2023-06-26T09:10:26;96121.28;;;26.90;48.50
75196;BME280;63773;42.282;22.782;2023-06-26T09:12:55;96128.94;;;26.70;47.54
75196;BME280;63773;42.282;22.782;2023-06-26T09:15:20;96124.00;;;26.83;47.78
75196;BME280;63773;42.282;22.782;2023-06-26T09:17:47;96127.41;;;27.44;47.75
75196;BME280;63773;42.282;22.782;2023-06-26T09:20:13;96127.59;;;27.32;48.30
75196;BME280;63773;42.282;22.782;2023-06-26T09:22:41;96088.13;;;27.78;46.05
75196;BME280;63773;42.282;22.782;2023-06-26T09:25:07;96124.94;;;28.25;43.96
75196;BME280;63773;42.282;22.782;2023-06-26T09:27:34;96131.47;;;27.73;45.28
75196;BME280;63773;42.282;22.782;2023-06-26T09:30:02;96130.13;;;27.37;44.57
75196;BME280;63773;42.282;22.782;2023-06-26T09:32:27;96135.56;;;27.79;45.38
75196;BME280;63773;42.282;22.782;2023-06-26T09:34:53;96135.84;;;27.44;46.59
75196;BME280;63773;42.282;22.782;2023-06-26T09:37:21;96121.63;;;27.34;46.09
75196;BME280;63773;42.282;22.782;2023-06-26T09:39:48;96138.59;;;27.67;45.44
75196;BME280;63773;42.282;22.782;2023-06-26T09:42:14;96119.06;;;27.48;44.38
75196;BME280;63773;42.282;22.782;2023-06-26T09:44:47;96138.63;;;27.18;43.87
75196;BME280;63773;42.282;22.782;2023-06-26T09:47:34;96133.88;;;27.75;43.21
75196;BME280;63773;42.282;22.782;2023-06-26T09:50:02;96137.78;;;27.67;43.17
75196;BME280;63773;42.282;22.782;2023-06-26T09:52:28;96133.94;;;27.78;43.82
75196;BME280;63773;42.282;22.782;2023-06-26T09:55:10;96131.19;;;28.12;44.40
75196;BME280;63773;42.282;22.782;2023-06-26T09:57:39;96131.47;;;27.73;44.78
75196;BME280;63773;42.282;22.782;2023-06-26T10:00:06;96106.63;;;27.49;44.91
75196;BME280;63773;42.282;22.782;2023-06-26T10:02:33;96128.03;;;27.57;46.46
75196;BME280;63773;42.282;22.782;2023-06-26T10:04:59;96128.41;;;28.15;44.15
75196;BME280;63773;42.282;22.782;2023-06-26T10:07:45;96135.63;;;27.83;43.60
75196;BME280;63773;42.282;22.782;2023-06-26T10:10:11;96097.19;;;27.94;44.34
75196;BME280;63773;42.282;22.782;2023-06-26T10:12:37;96127.69;;;28.22;44.26
75196;BME280;63773;42.282;22.782;2023-06-26T10:15:03;96125.78;;;28.66;44.33
75196;BME280;63773;42.282;22.782;2023-06-26T10:17:34;96113.56;;;28.92;41.79
75196;BME280;63773;42.282;22.782;2023-06-26T10:20:02;96107.66;;;29.55;41.27
75196;BME280;63773;42.282;22.782;2023-06-26T10:22:29;96115.31;;;29.61;40.62
75196;BME280;63773;42.282;22.782;2023-06-26T10:24:59;96111.88;;;28.84;41.27
75196;BME280;63773;42.282;22.782;2023-06-26T10:27:28;96114.75;;;28.14;43.21
75196;BME280;63773;42.282;22.782;2023-06-26T10:30:02;96003.44;;;28.23;43.79
75196;BME280;63773;42.282;22.782;2023-06-26T10:32:29;96103.13;;;29.43;42.37
75196;BME280;63773;42.282;22.782;2023-06-26T10:34:56;96070.50;;;29.46;39.66
75196;BME280;63773;42.282;22.782;2023-06-26T10:37:40;96091.31;;;29.27;40.53
75196;BME280;63773;42.282;22.782;2023-06-26T10:40:06;96043.03;;;28.81;39.34
75196;BME280;63773;42.282;22.782;2023-06-26T10:42:37;96076.09;;;29.35;41.01
75196;BME280;63773;42.282;22.782;2023-06-26T10:45:18;96091.06;;;29.46;38.59
75196;BME280;63773;42.282;22.782;2023-06-26T10:47:48;96089.59;;;29.73;37.77
75196;BME280;63773;42.282;22.782;2023-06-26T10:50:36;96079.28;;;29.99;37.57
75196;BME280;63773;42.282;22.782;2023-06-26T10:56:03;96072.25;;;30.75;37.21
75196;BME280;63773;42.282;22.782;2023-06-26T10:58:30;96063.63;;;30.22;36.27
75196;BME280;63773;42.282;22.782;2023-06-26T11:01:17;96047.63;;;29.58;37.33
75196;BME280;63773;42.282;22.782;2023-06-26T11:06:27;96071.00;;;30.59;37.08
75196;BME280;63773;42.282;22.782;2023-06-26T11:08:54;96072.88;;;30.23;36.62
75196;BME280;63773;42.282;22.782;2023-06-26T11:11:21;96072.59;;;30.53;37.82
75196;BME280;63773;42.282;22.782;2023-06-26T11:13:47;96046.28;;;29.41;37.23
75196;BME280;63773;42.282;22.782;2023-06-26T11:16:14;96070.06;;;30.23;36.39
75196;BME280;63773;42.282;22.782;2023-06-26T11:18:40;96070.09;;;30.30;38.61
75196;BME280;63773;42.282;22.782;2023-06-26T11:21:09;96071.03;;;30.76;35.27
75196;BME280;63773;42.282;22.782;2023-06-26T11:23:36;96049.22;;;30.80;35.41
75196;BME280;63773;42.282;22.782;2023-06-26T11:28:46;96061.31;;;30.88;36.36
75196;BME280;63773;42.282;22.782;2023-06-26T11:31:32;96069.84;;;31.48;34.37
75196;BME280;63773;42.282;22.782;2023-06-26T11:34:03;96057.31;;;30.82;34.93
75196;BME280;63773;42.282;22.782;2023-06-26T11:36:30;96058.50;;;31.48;36.03
75196;BME280;63773;42.282;22.782;2023-06-26T11:38:59;96066.59;;;31.53;33.83
75196;BME280;63773;42.282;22.782;2023-06-26T11:41:27;96027.66;;;31.89;31.56
75196;BME280;63773;42.282;22.782;2023-06-26T11:43:53;96053.25;;;31.39;33.57
75196;BME280;63773;42.282;22.782;2023-06-26T11:46:20;96058.88;;;31.71;34.84
75196;BME280;63773;42.282;22.782;2023-06-26T11:48:46;96062.16;;;31.38;32.71
75196;BME280;63773;42.282;22.782;2023-06-26T11:51:15;96054.09;;;31.47;33.53
75196;BME280;63773;42.282;22.782;2023-06-26T11:53:45;96058.94;;;31.29;32.22
75196;BME280;63773;42.282;22.782;2023-06-26T11:56:12;96055.22;;;31.74;34.18
75196;BME280;63773;42.282;22.782;2023-06-26T11:58:57;96053.97;;;31.79;33.52
75196;BME280;63773;42.282;22.782;2023-06-26T12:04:04;96038.25;;;30.33;34.86
75196;BME280;63773;42.282;22.782;2023-06-26T12:06:32;96052.47;;;31.14;32.63
75196;BME280;63773;42.282;22.782;2023-06-26T12:09:00;96044.38;;;31.48;34.89
75196;BME280;63773;42.282;22.782;2023-06-26T12:11:27;96052.91;;;30.99;33.17
75196;BME280;63773;42.282;22.782;2023-06-26T12:13:54;96025.00;;;31.11;33.68
75196;BME280;63773;42.282;22.782;2023-06-26T12:17:03;96050.84;;;30.88;32.93
75196;BME280;63773;42.282;22.782;2023-06-26T12:19:29;96047.19;;;31.52;32.71
75196;BME280;63773;42.282;22.782;2023-06-26T12:21:58;96053.25;;;30.69;31.42
75196;BME280;63773;42.282;22.782;2023-06-26T12:24:23;96040.97;;;32.06;32.23
75196;BME280;63773;42.282;22.782;2023-06-26T12:26:51;96056.03;;;31.71;31.22
75196;BME280;63773;42.282;22.782;2023-06-26T12:29:19;96051.50;;;32.02;31.31
75196;BME280;63773;42.282;22.782;2023-06-26T12:31:52;96053.06;;;32.14;30.54
75196;BME280;63773;42.282;22.782;2023-06-26T12:34:20;96030.66;;;31.08;33.57
75196;BME280;63773;42.282;22.782;2023-06-26T12:36:50;96041.53;;;31.55;31.03
75196;BME280;63773;42.282;22.782;2023-06-26T12:39:18;96043.16;;;31.53;30.33
75196;BME280;63773;42.282;22.782;2023-06-26T12:41:55;96054.91;;;31.30;31.74
75196;BME280;63773;42.282;22.782;2023-06-26T12:44:22;96049.59;;;31.46;32.19
75196;BME280;63773;42.282;22.782;2023-06-26T12:46:49;96027.00;;;30.68;31.72
75196;BME280;63773;42.282;22.782;2023-06-26T12:49:15;96039.16;;;30.97;30.05
75196;BME280;63773;42.282;22.782;2023-06-26T12:51:41;96053.25;;;31.47;30.95
75196;BME280;63773;42.282;22.782;2023-06-26T12:54:08;96051.25;;;30.87;29.37
75196;BME280;63773;42.282;22.782;2023-06-26T12:56:34;96046.44;;;31.12;30.09
75196;BME280;63773;42.282;22.782;2023-06-26T12:58:59;96059.28;;;31.63;30.52
75196;BME280;63773;42.282;22.782;2023-06-26T13:01:26;96052.72;;;31.87;30.59
75196;BME280;63773;42.282;22.782;2023-06-26T13:03:53;96037.16;;;32.37;28.80
75196;BME280;63773;42.282;22.782;2023-06-26T13:06:19;96003.47;;;32.50;29.89
75196;BME280;63773;42.282;22.782;2023-06-26T13:08:44;96035.94;;;32.97;28.97